Time;durP1;ratioP1;P1;durP2;ratioP2;P2;SDS_P1;SDS_P2;PMS_P1;PMS_P2;Temp;Humidity;BMP_temperature;BMP_pressure;BME280_temperature;BME280_humidity;BME280_pressure;Samples;Min_cycle;Max_cycle;Signal;HPM_P1;HPM_P2
2022/11/17 00:02:37;;;;;;;22.60;17.98;;;;;;;3.28;91.56;99261.89;2265447;78;32198;-71
2022/11/17 00:05:39;;;;;;;21.95;17.87;;;;;;;3.25;91.47;99254.91;2269087;78;34358;-65
2022/11/17 00:08:41;;;;;;;21.40;17.77;;;;;;;3.27;91.53;99260.17;2269588;78;28833;-65
2022/11/17 00:15:05;;;;;;;26.23;17.77;;;;;;;3.27;91.46;99260.17;2268777;78;29982;-63
2022/11/17 00:21:27;;;;;;;23.87;17.77;;;;;;;3.24;91.46;99249.69;2260669;78;33393;-65
2022/11/17 00:24:29;;;;;;;25.70;18.27;;;;;;;3.23;91.49;99247.48;2269212;78;29405;-65
2022/11/17 00:27:30;;;;;;;25.17;18.23;;;;;;;3.24;91.53;99251.86;2269991;78;27542;-77
2022/11/17 00:34:04;;;;;;;26.30;19.12;;;;;;;3.25;91.67;99252.27;2269161;77;32224;-64
2022/11/17 00:37:06;;;;;;;25.17;18.95;;;;;;;3.26;91.58;99254.47;2269272;78;32343;-74
2022/11/17 00:40:09;;;;;;;28.32;20.55;;;;;;;3.23;91.56;99248.80;2278922;77;30176;-64
2022/11/17 00:43:11;;;;;;;23.75;18.80;;;;;;;3.26;91.70;99250.02;2269614;78;27620;-63
2022/11/17 00:46:13;;;;;;;27.82;19.48;;;;;;;3.24;91.52;99251.86;2268902;78;29539;-63
2022/11/17 00:49:15;;;;;;;24.77;18.32;;;;;;;3.22;91.64;99249.76;2268731;78;32199;-65
2022/11/17 00:52:17;;;;;;;25.65;18.55;;;;;;;3.25;91.76;99253.59;2258953;78;34228;-64
2022/11/17 00:55:18;;;;;;;24.12;19.20;;;;;;;3.26;91.78;99255.31;2269595;78;29365;-68
2022/11/17 00:58:20;;;;;;;21.77;17.77;;;;;;;3.27;91.75;99250.43;2269588;78;27658;-63
2022/11/17 01:01:22;;;;;;;24.12;18.40;;;;;;;3.26;91.81;99245.20;2289870;77;29275;-63
2022/11/17 01:04:24;;;;;;;25.65;18.30;;;;;;;3.29;91.85;99255.21;2296873;77;32253;-65
2022/11/17 01:07:25;;;;;;;23.77;18.37;;;;;;;3.30;91.81;99250.80;2257620;78;34274;-64
2022/11/17 01:10:27;;;;;;;22.58;18.23;;;;;;;3.31;91.87;99255.17;2254916;78;30132;-64
2022/11/17 01:13:29;;;;;;;25.20;19.32;;;;;;;3.31;91.74;99241.47;2265417;78;28200;-65
2022/11/17 01:16:32;;;;;;;23.83;18.37;;;;;;;3.31;91.86;99246.76;2265587;78;28585;-63
2022/11/17 01:19:33;;;;;;;26.15;19.17;;;;;;;3.32;91.77;99248.93;2269004;77;31050;-64
2022/11/17 01:22:36;;;;;;;23.70;18.27;;;;;;;3.32;91.85;99247.16;2297043;77;33616;-66
2022/11/17 01:25:39;;;;;;;23.27;18.17;;;;;;;3.31;91.78;99244.11;2257732;78;30408;-63
2022/11/17 01:28:41;;;;;;;21.27;17.52;;;;;;;3.32;91.85;99243.63;2260626;78;27655;-70
2022/11/17 01:31:44;;;;;;;21.27;17.02;;;;;;;3.32;91.86;99246.28;2249528;78;29092;-70
2022/11/17 01:34:46;;;;;;;23.02;18.25;;;;;;;3.31;91.85;99230.87;2265351;78;32127;-67
2022/11/17 01:37:48;;;;;;;24.02;17.65;;;;;;;3.32;91.79;99231.72;2265882;78;33866;-71
2022/11/17 01:40:49;;;;;;;22.65;17.48;;;;;;;3.34;91.96;99241.80;2281241;77;28641;-63
2022/11/17 01:43:58;;;;;;;23.30;18.75;;;;;;;3.33;91.85;99233.45;2253329;76;27696;-62
2022/11/17 01:46:59;;;;;;;23.62;17.40;;;;;;;3.33;91.90;99235.66;2152898;82;29082;-65
2022/11/17 01:50:18;;;;;;;25.48;18.42;;;;;;;3.34;91.95;99233.86;2153070;82;31397;-65
2022/11/17 01:53:21;;;;;;;24.55;19.32;;;;;;;3.34;92.01;99232.09;2153366;82;33981;-61
2022/11/17 01:56:28;;;;;;;23.57;18.90;;;;;;;3.36;91.97;99232.02;2152908;82;30224;-68
2022/11/17 01:59:38;;;;;;;23.52;18.67;;;;;;;3.36;92.01;99232.50;2153124;82;27601;-69
2022/11/17 02:02:40;;;;;;;24.43;19.35;;;;;;;3.36;91.97;99233.34;2152992;82;29084;-63
2022/11/17 02:06:03;;;;;;;24.32;18.82;;;;;;;3.38;92.04;99228.02;2153017;82;32391;-71
2022/11/17 02:09:04;;;;;;;23.60;18.60;;;;;;;3.37;91.97;99224.48;2152838;82;34413;-64
2022/11/17 02:12:12;;;;;;;23.32;18.37;;;;;;;3.37;91.94;99219.66;2152913;82;30191;-63
2022/11/17 02:15:14;;;;;;;21.97;18.37;;;;;;;3.38;92.07;99222.24;2151051;82;27705;-65
2022/11/17 02:18:17;;;;;;;24.27;18.60;;;;;;;3.40;92.15;99225.70;2116577;82;30055;-69
2022/11/17 02:21:44;;;;;;;25.15;18.52;;;;;;;3.42;92.04;99230.92;2090587;84;31846;-66
2022/11/17 02:25:00;;;;;;;22.60;17.50;;;;;;;3.41;92.06;99222.13;2114622;84;34195;-66
2022/11/17 02:28:35;;;;;;;24.95;19.77;;;;;;;3.43;92.17;99224.70;2145796;82;29471;-68
2022/11/17 02:31:57;;;;;;;23.27;18.37;;;;;;;3.42;92.04;99219.89;2153433;82;27699;-70
2022/11/17 02:35:10;;;;;;;28.00;20.20;;;;;;;3.42;92.05;99217.69;2152657;82;29947;-61
2022/11/17 02:38:41;;;;;;;26.17;20.10;;;;;;;3.41;92.09;99212.86;2142488;82;32312;-74
2022/11/17 02:42:06;;;;;;;28.20;19.70;;;;;;;3.42;92.08;99219.01;2152319;82;33506;-65
2022/11/17 02:45:15;;;;;;;31.93;22.15;;;;;;;3.42;92.04;99215.04;2151008;81;27622;-68
2022/11/17 02:48:28;;;;;;;28.47;21.07;;;;;;;3.40;92.07;99204.52;2115059;84;27653;-70
2022/11/17 02:51:30;;;;;;;31.90;23.20;;;;;;;3.40;92.03;99209.81;2113186;84;29961;-66
2022/11/17 02:54:33;;;;;;;28.25;20.88;;;;;;;3.41;92.06;99206.69;2114483;84;31087;-67
2022/11/17 02:57:40;;;;;;;29.37;22.13;;;;;;;3.42;92.13;99206.66;2146267;82;34177;-69
2022/11/17 03:00:46;;;;;;;34.95;23.57;;;;;;;3.41;92.07;99206.25;2153142;82;29368;-71
2022/11/17 03:03:53;;;;;;;31.42;22.07;;;;;;;3.41;92.02;99200.95;2147612;82;27803;-68
2022/11/17 03:07:36;;;;;;;29.10;21.90;;;;;;;3.42;92.02;99211.95;2130048;82;29345;-64
2022/11/17 03:10:49;;;;;;;32.35;22.65;;;;;;;3.42;91.94;99208.42;2114609;84;32310;-63
2022/11/17 03:14:23;;;;;;;32.98;22.15;;;;;;;3.41;92.12;99214.19;2115087;84;32844;-63
2022/11/17 03:18:05;;;;;;;36.33;24.30;;;;;;;3.39;91.97;99209.41;2142907;82;28913;-60
2022/11/17 03:21:24;;;;;;;31.97;23.10;;;;;;;3.38;91.94;99206.83;2044237;86;27723;-62
2022/11/17 03:24:30;;;;;;;33.02;22.75;;;;;;;3.38;92.04;99209.48;2044068;87;29482;-66
2022/11/17 03:27:34;;;;;;;;;;;;;;;3.37;91.99;99209.92;2044990;87;31042;-62
2022/11/17 03:30:39;;;;;;;32.10;21.97;;;;;;;3.35;91.92;99206.47;2044107;87;33649;-60
2022/11/17 03:33:47;;;;;;;34.65;23.12;;;;;;;3.36;92.03;99209.99;2044597;87;29382;-60
2022/11/17 03:36:52;;;;;;;35.20;23.70;;;;;;;3.38;92.10;99216.95;2026951;87;27812;-68
2022/11/17 03:39:59;;;;;;;32.33;23.42;;;;;;;3.38;92.07;99216.09;2011103;88;28649;-69
2022/11/17 03:43:06;;;;;;;31.40;22.67;;;;;;;3.37;91.91;99211.25;2011140;88;32236;-70
2022/11/17 03:46:12;;;;;;;32.78;22.52;;;;;;;3.37;91.93;99209.92;2009215;86;33091;-72
2022/11/17 03:49:39;;;;;;;30.48;21.75;;;;;;;3.36;91.82;99216.61;2029498;87;29052;-67
2022/11/17 03:52:41;;;;;;;25.60;19.02;;;;;;;3.33;91.71;99216.25;2029692;87;27704;-61
2022/11/17 03:56:12;;;;;;;27.85;19.87;;;;;;;3.31;91.77;99217.64;2103992;83;29116;-67
2022/11/17 03:59:35;;;;;;;27.02;19.65;;;;;;;3.31;91.73;99216.79;2073101;85;31885;-63
2022/11/17 04:02:42;;;;;;;29.63;20.23;;;;;;;3.31;91.78;99218.97;2072943;85;34296;-61
2022/11/17 04:05:45;;;;;;;28.45;19.45;;;;;;;3.32;91.76;99223.34;2077152;83;29867;-63
2022/11/17 04:08:46;;;;;;;29.85;20.55;;;;;;;3.32;91.70;99216.72;2096037;84;28283;-63
2022/11/17 04:18:30;;;;;;;26.25;17.98;;;;;;;3.34;91.60;99230.77;2116686;83;34041;-67
2022/11/17 04:21:32;;;;;;;25.60;18.25;;;;;;;3.33;91.44;99229.04;2090792;85;28876;-60
2022/11/17 04:24:33;;;;;;;26.35;19.05;;;;;;;3.32;91.43;99223.34;2091105;84;27685;-61
2022/11/17 04:30:56;;;;;;;26.82;18.92;;;;;;;3.31;91.27;99220.28;2097304;84;33111;-61
2022/11/17 04:34:01;;;;;;;25.37;18.10;;;;;;;3.32;91.36;99223.34;2097732;84;33423;-68
2022/11/17 04:37:15;;;;;;;23.45;16.85;;;;;;;3.33;91.35;99221.54;2103386;83;29014;-62
2022/11/17 04:40:09;;;;;;;27.93;17.30;;;;;;;3.34;91.37;99218.86;2093740;84;27691;-61
2022/11/17 04:43:10;;;;;;;26.37;18.60;;;;;;;3.36;91.30;99221.91;2095866;84;29680;-63
2022/11/17 04:46:12;;;;;;;25.15;18.00;;;;;;;3.36;91.23;99217.46;2098227;83;31463;-61
2022/11/17 04:49:16;;;;;;;22.55;17.07;;;;;;;3.37;91.32;99212.57;2134375;83;33592;-61
2022/11/17 04:52:18;;;;;;;23.50;16.65;;;;;;;3.38;91.32;99216.09;2134855;83;28994;-61
2022/11/17 04:55:20;;;;;;;26.75;17.57;;;;;;;3.40;91.25;99210.25;2134596;83;27656;-62
2022/11/17 04:58:22;;;;;;;24.87;19.02;;;;;;;3.42;91.25;99207.97;2105887;83;29856;-61
2022/11/17 05:01:25;;;;;;;25.35;18.07;;;;;;;3.41;91.09;99212.86;2097040;84;31390;-60
2022/11/17 05:07:47;;;;;;;23.25;17.32;;;;;;;3.38;91.03;99220.07;2117987;83;30336;-61
2022/11/17 05:14:13;;;;;;;24.27;17.27;;;;;;;3.38;91.09;99222.72;2029879;87;29989;-61
2022/11/17 05:17:15;;;;;;;23.18;16.60;;;;;;;3.39;90.94;99216.50;2017693;87;32013;-60
2022/11/17 05:20:17;;;;;;;23.25;16.90;;;;;;;3.40;91.02;99224.81;1997673;89;33740;-61
2022/11/17 05:26:41;;;;;;;22.65;15.75;;;;;;;3.40;90.89;99225.70;1999359;87;27755;-60
2022/11/17 05:29:42;;;;;;;23.10;17.25;;;;;;;3.43;91.04;99223.38;1997540;89;28764;-61
2022/11/17 05:32:44;;;;;;;25.75;17.50;;;;;;;3.40;90.97;99225.70;1997796;89;30959;-60
2022/11/17 05:35:45;;;;;;;23.62;17.27;;;;;;;3.43;91.00;99229.56;1997684;89;33325;-61
2022/11/17 05:38:48;;;;;;;25.68;17.95;;;;;;;3.45;91.06;99227.72;2026012;87;29036;-60
2022/11/17 05:41:49;;;;;;;24.10;16.95;;;;;;;3.47;91.16;99232.50;2030088;87;28152;-61
2022/11/17 05:44:50;;;;;;;27.60;17.37;;;;;;;3.47;90.97;99232.50;2077098;81;29040;-60
2022/11/17 05:47:52;;;;;;;23.05;17.00;;;;;;;3.46;90.84;99238.72;2153118;82;31445;-60
2022/11/17 05:50:55;;;;;;;23.00;17.07;;;;;;;3.45;90.63;99240.08;2153231;82;33026;-60
2022/11/17 05:53:57;;;;;;;21.12;16.95;;;;;;;3.43;90.65;99234.86;2153248;82;29010;-60
2022/11/17 05:57:03;;;;;;;25.48;18.57;;;;;;;3.43;90.73;99241.47;2144300;82;27683;-61
2022/11/17 06:00:07;;;;;;;22.30;17.07;;;;;;;3.44;90.65;99238.35;2114903;84;29658;-60
2022/11/17 06:03:17;;;;;;;23.75;16.87;;;;;;;3.45;90.75;99237.44;2115007;84;31016;-61
2022/11/17 06:06:19;;;;;;;25.10;17.95;;;;;;;3.42;90.54;99234.45;2114659;82;33359;-60
2022/11/17 06:09:21;;;;;;;24.50;16.35;;;;;;;3.42;90.54;99231.80;2152911;82;29391;-61
2022/11/17 06:12:23;;;;;;;22.58;17.25;;;;;;;3.45;90.69;99240.08;2153809;82;27633;-61
2022/11/17 06:15:24;;;;;;;23.67;17.00;;;;;;;3.43;90.53;99241.91;2152918;82;29930;-60
2022/11/17 06:18:31;;;;;;;23.55;16.37;;;;;;;3.43;90.55;99238.83;2125817;82;32475;-61
2022/11/17 06:21:33;;;;;;;26.37;17.67;;;;;;;3.43;90.61;99237.95;2114448;84;32956;-61
2022/11/17 06:24:36;;;;;;;22.00;16.15;;;;;;;3.43;90.61;99242.80;2114572;84;30316;-61
2022/11/17 06:27:39;;;;;;;23.55;15.98;;;;;;;3.44;90.55;99239.67;2131371;82;27573;-61
2022/11/17 06:30:41;;;;;;;22.00;15.48;;;;;;;3.43;90.49;99236.18;2153022;82;29630;-60
2022/11/17 06:33:43;;;;;;;21.00;16.55;;;;;;;3.43;90.42;99236.63;2153196;82;30842;-60
2022/11/17 06:36:45;;;;;;;22.00;15.90;;;;;;;3.43;90.37;99236.18;2148274;82;34103;-69
2022/11/17 06:39:46;;;;;;;20.23;15.13;;;;;;;3.42;90.26;99230.48;2114653;84;29065;-61
2022/11/17 06:43:07;;;;;;;23.27;16.00;;;;;;;3.40;90.17;99232.31;2115135;84;27583;-61
2022/11/17 06:46:07;;;;;;;22.27;16.70;;;;;;;3.40;90.18;99232.77;2106503;83;29942;-67
2022/11/17 06:49:09;;;;;;;23.35;18.60;;;;;;;3.39;90.19;99241.66;2131141;83;31042;-60
2022/11/17 06:52:10;;;;;;;24.92;16.95;;;;;;;3.41;90.32;99235.37;2134528;83;34139;-60
2022/11/17 06:55:12;;;;;;;22.82;16.23;;;;;;;3.40;90.29;99236.29;2134077;83;30217;-61
2022/11/17 06:58:14;;;;;;;21.50;15.30;;;;;;;3.42;90.16;99240.19;2111603;83;27951;-61
2022/11/17 07:01:16;;;;;;;19.60;15.53;;;;;;;3.40;90.17;99237.61;2096893;84;29860;-62
2022/11/17 07:04:18;;;;;;;18.90;13.75;;;;;;;3.43;90.26;99241.47;2096482;84;32377;-60
2022/11/17 07:07:20;;;;;;;18.27;13.95;;;;;;;3.44;90.02;99248.94;2107351;83;34145;-61
2022/11/17 07:10:21;;;;;;;19.35;14.07;;;;;;;3.45;89.97;99257.29;2134331;83;29361;-60
2022/11/17 07:13:24;;;;;;;18.82;13.45;;;;;;;3.46;89.94;99259.02;2134479;83;27695;-60
2022/11/17 07:16:25;;;;;;;18.37;13.50;;;;;;;3.46;90.11;99257.25;2134280;83;30050;-60
2022/11/17 07:19:27;;;;;;;16.80;12.35;;;;;;;3.49;89.98;99262.41;2134340;83;32360;-60
2022/11/17 07:22:29;;;;;;;16.40;13.28;;;;;;;3.49;89.80;99257.11;2134560;83;34058;-61
2022/11/17 07:25:30;;;;;;;16.60;12.45;;;;;;;3.46;89.49;99256.37;2134232;83;30294;-61
2022/11/17 07:28:33;;;;;;;14.45;12.28;;;;;;;3.47;89.71;99253.69;2109334;83;27602;-61
2022/11/17 07:31:36;;;;;;;15.78;11.65;;;;;;;3.49;89.72;99250.97;2096551;84;28690;-61
2022/11/17 07:34:38;;;;;;;19.25;14.58;;;;;;;3.53;89.75;99255.67;2096889;84;31436;-61
2022/11/17 07:37:39;;;;;;;19.37;14.85;;;;;;;3.54;89.85;99249.02;2098532;83;34137;-64
2022/11/17 07:40:41;;;;;;;21.27;14.28;;;;;;;3.58;89.87;99243.14;2096645;84;29375;-63
2022/11/17 07:43:45;;;;;;;19.87;15.53;;;;;;;3.60;89.69;99239.50;2096481;84;27595;-61
2022/11/17 07:46:47;;;;;;;18.62;14.50;;;;;;;3.63;89.67;99235.41;2098565;83;29906;-61
2022/11/17 07:49:49;;;;;;;20.20;14.18;;;;;;;3.68;89.72;99244.50;2096881;84;32222;-62
2022/11/17 07:52:52;;;;;;;17.52;13.28;;;;;;;3.73;89.54;99249.61;2096704;84;33505;-59
2022/11/17 07:55:55;;;;;;;18.20;13.48;;;;;;;3.76;89.30;99245.53;2096677;84;30191;-61
2022/11/17 07:58:57;;;;;;;15.23;11.65;;;;;;;3.79;89.09;99247.62;2125709;83;27608;-59
2022/11/17 08:01:58;;;;;;;17.70;13.25;;;;;;;3.82;88.75;99247.06;2134103;83;29806;-60
2022/11/17 08:05:00;;;;;;;16.05;11.48;;;;;;;3.86;88.91;99246.03;2134099;83;31144;-61
2022/11/17 08:08:02;;;;;;;15.38;11.88;;;;;;;3.89;88.59;99244.59;2132314;83;34130;-59
2022/11/17 08:11:11;;;;;;;17.05;11.50;;;;;;;3.91;88.17;99246.25;2134104;83;29922;-60
2022/11/17 08:14:13;;;;;;;18.10;12.65;;;;;;;3.93;88.13;99242.23;2134289;83;28019;-59
2022/11/17 08:17:16;;;;;;;13.58;11.35;;;;;;;3.92;87.86;99245.80;2127298;83;29117;-60
2022/11/17 08:20:18;;;;;;;15.55;10.58;;;;;;;3.93;87.74;99247.53;2096859;84;31025;-59
2022/11/17 08:23:20;;;;;;;14.10;10.45;;;;;;;3.92;87.70;99260.38;2106270;82;35091;-59
2022/11/17 08:26:26;;;;;;;15.30;10.75;;;;;;;3.90;87.16;99245.84;2171472;82;29629;-59
2022/11/17 08:29:25;;;;;;;17.67;12.03;;;;;;;3.93;87.74;99246.21;2135684;81;27725;-59
2022/11/17 08:32:28;;;;;;;18.92;12.75;;;;;;;3.92;87.36;99245.33;2134375;83;28702;-59
2022/11/17 08:35:31;;;;;;;17.52;11.10;;;;;;;3.93;87.00;99244.88;2134954;83;31369;-61
2022/11/17 08:38:34;;;;;;;14.98;11.48;;;;;;;3.91;86.75;99248.90;2111215;83;34338;-59
2022/11/17 08:41:36;;;;;;;16.40;12.28;;;;;;;3.93;87.16;99254.16;2096838;84;30151;-64
2022/11/17 08:44:38;;;;;;;14.45;12.05;;;;;;;3.94;87.40;99251.44;2097118;84;27619;-60
2022/11/17 08:47:40;;;;;;;16.87;12.82;;;;;;;3.95;86.87;99251.84;2107872;83;29078;-60
2022/11/17 08:50:42;;;;;;;15.65;11.50;;;;;;;3.92;86.48;99255.92;2134234;83;32305;-65
2022/11/17 08:53:43;;;;;;;18.55;12.98;;;;;;;3.91;86.45;99252.03;2134183;83;34326;-59
2022/11/17 08:56:45;;;;;;;14.85;11.95;;;;;;;3.91;86.35;99254.67;2134553;83;30129;-62
2022/11/17 08:59:47;;;;;;;20.75;13.65;;;;;;;3.90;86.64;99253.80;2134140;83;27710;-60
2022/11/17 09:02:49;;;;;;;13.98;12.43;;;;;;;3.93;86.27;99270.05;2134530;83;28660;-65
2022/11/17 09:05:51;;;;;;;18.65;15.08;;;;;;;3.95;86.15;99266.41;2134330;83;32310;-64
2022/11/17 09:08:54;;;;;;;22.55;16.90;;;;;;;3.99;86.57;99265.82;2133339;83;34325;-68
2022/11/17 09:11:55;;;;;;;19.82;15.43;;;;;;;3.99;86.18;99277.75;2134494;83;29040;-64
2022/11/17 09:14:57;;;;;;;22.27;15.83;;;;;;;3.99;86.17;99267.63;2134434;83;27675;-61
2022/11/17 09:18:00;;;;;;;17.35;14.05;;;;;;;3.95;85.85;99261.59;2119938;83;29455;-65
2022/11/17 09:21:05;;;;;;;20.00;16.00;;;;;;;3.93;85.79;99282.83;2122120;82;31055;-64
2022/11/17 09:24:07;;;;;;;18.20;12.78;;;;;;;3.92;85.64;99281.09;2171721;81;32947;-62
2022/11/17 09:27:09;;;;;;;17.42;13.22;;;;;;;3.93;85.51;99285.95;2167169;82;29784;-72
2022/11/17 09:30:11;;;;;;;20.37;14.38;;;;;;;3.92;85.55;99281.09;2134739;83;27644;-60
2022/11/17 09:33:13;;;;;;;17.40;13.32;;;;;;;3.93;85.65;99281.50;2134312;83;30022;-62
2022/11/17 09:36:16;;;;;;;15.58;12.33;;;;;;;4.00;85.58;99275.97;2111904;83;30947;-60
2022/11/17 09:39:17;;;;;;;15.60;11.08;;;;;;;4.00;85.55;99272.00;2132321;83;34080;-61
2022/11/17 09:42:21;;;;;;;18.10;11.40;;;;;;;4.04;85.03;99270.48;2134599;83;30138;-61
2022/11/17 09:45:33;;;;;;;16.03;12.07;;;;;;;4.02;84.14;99263.53;2134655;83;27725;-62
2022/11/17 09:48:42;;;;;;;12.35;9.13;;;;;;;3.99;84.37;99257.88;2130666;81;30000;-60
2022/11/17 09:51:46;;;;;;;14.80;10.63;;;;;;;3.93;83.89;99275.36;2125163;82;31472;-61
2022/11/17 09:54:56;;;;;;;23.20;11.05;;;;;;;3.90;84.21;99267.52;2153060;82;33913;-60
2022/11/17 09:58:36;;;;;;;14.13;10.43;;;;;;;3.89;84.23;99257.36;2141684;82;29444;-60
2022/11/17 10:01:37;;;;;;;13.35;9.93;;;;;;;3.89;84.35;99253.87;2133833;82;27696;-64
2022/11/17 10:04:39;;;;;;;15.72;9.93;;;;;;;3.91;84.65;99252.88;2153292;82;29862;-68
2022/11/17 10:07:46;;;;;;;13.40;9.98;;;;;;;3.93;84.63;99247.53;2136848;82;31623;-68
2022/11/17 10:10:51;;;;;;;15.78;9.13;;;;;;;3.95;84.52;99250.99;2135280;83;33816;-61
2022/11/17 10:13:53;;;;;;;;;;;;;;;3.95;84.43;99243.89;2138120;83;29021;-62
2022/11/17 10:16:57;;;;;;;15.05;10.20;;;;;;;3.95;84.36;99249.19;2135558;83;27980;-62
2022/11/17 10:19:59;;;;;;;12.45;8.13;;;;;;;3.94;84.40;99251.44;2152778;82;28652;-64
2022/11/17 10:23:01;;;;;;;11.97;9.00;;;;;;;3.93;84.18;99251.03;2153424;82;31419;-70
2022/11/17 10:26:12;;;;;;;12.85;8.18;;;;;;;3.95;84.07;99253.64;2128220;82;33613;-60
2022/11/17 10:29:18;;;;;;;9.75;7.90;;;;;;;3.95;84.00;99256.29;2153215;82;29373;-61
2022/11/17 10:32:19;;;;;;;9.75;6.40;;;;;;;3.93;83.84;99259.45;2128426;82;27880;-63
2022/11/17 10:35:36;;;;;;;7.37;5.55;;;;;;;3.91;83.34;99265.27;2152845;82;29451;-62
2022/11/17 10:38:38;;;;;;;;;;;;;;;3.94;83.80;99261.19;2121319;82;31480;-63
2022/11/17 10:41:44;;;;;;;8.08;5.30;;;;;;;4.00;83.89;99260.92;2069865;84;33426;-64
2022/11/17 10:44:53;;;;;;;8.18;6.33;;;;;;;4.03;82.76;99259.96;2116692;84;30054;-65
2022/11/17 10:48:14;;;;;;;6.58;4.83;;;;;;;4.05;82.92;99256.31;2138036;80;27936;-68
2022/11/17 10:51:21;;;;;;;7.25;5.22;;;;;;;4.09;83.21;99258.38;2206357;80;29569;-63
2022/11/17 10:54:22;;;;;;;6.35;4.80;;;;;;;4.13;82.63;99252.03;2193931;80;31378;-65
2022/11/17 10:57:26;;;;;;;8.80;6.78;;;;;;;4.14;82.58;99250.27;2144234;82;34116;-62
2022/11/17 11:00:33;;;;;;;8.55;7.10;;;;;;;4.16;82.76;99251.03;2161240;82;29797;-61
2022/11/17 11:03:35;;;;;;;7.87;6.47;;;;;;;4.15;81.94;99256.81;2171935;82;27621;-61
2022/11/17 11:06:38;;;;;;;10.48;6.45;;;;;;;4.14;82.15;99260.39;2171612;82;27723;-61
2022/11/17 11:10:14;;;;;;;11.08;7.87;;;;;;;4.15;81.42;99247.53;2133992;82;30823;-61
2022/11/17 11:13:32;;;;;;;7.47;5.85;;;;;;;4.15;81.55;99244.00;2125717;83;35944;-62
2022/11/17 11:16:35;;;;;;;9.80;6.58;;;;;;;4.14;81.94;99249.78;2132707;83;27708;-63
2022/11/17 11:19:37;;;;;;;11.10;6.62;;;;;;;4.15;81.97;99236.94;2169503;82;28077;-65
2022/11/17 11:22:53;;;;;;;6.05;4.97;;;;;;;4.16;81.87;99249.70;2171952;82;28691;-64
2022/11/17 11:26:09;;;;;;;6.67;5.45;;;;;;;4.17;81.74;99248.34;2157012;82;32492;-68
2022/11/17 11:29:16;;;;;;;6.75;5.05;;;;;;;4.21;81.20;99257.91;2165901;82;33491;-69
2022/11/17 11:32:41;;;;;;;6.60;4.87;;;;;;;4.26;81.32;99257.71;2168810;82;29857;-68
2022/11/17 11:36:27;;;;;;;6.85;5.15;;;;;;;4.32;80.57;99265.39;2164948;82;27642;-68
2022/11/17 11:39:54;;;;;;;6.12;4.45;;;;;;;4.33;79.81;99285.69;2125639;83;29833;-69
2022/11/17 11:42:59;;;;;;;6.95;5.08;;;;;;;4.26;79.28;99257.23;2099082;84;32376;-71
2022/11/17 11:46:24;;;;;;;5.92;4.37;;;;;;;4.22;79.66;99252.13;2105239;84;32959;-69
2022/11/17 11:49:43;;;;;;;7.65;4.45;;;;;;;4.23;80.28;99253.37;2099346;84;29216;-67
2022/11/17 11:52:56;;;;;;;6.55;5.10;;;;;;;4.28;80.25;99252.33;2103673;84;27672;-68
2022/11/17 11:56:18;;;;;;;7.35;4.80;;;;;;;4.30;80.32;99257.99;2094188;84;29571;-72
2022/11/17 11:59:54;;;;;;;5.65;4.92;;;;;;;4.30;79.32;99252.69;2092637;84;31877;-69
2022/11/17 12:03:04;;;;;;;;;;;;;;;4.30;79.30;99255.34;2107930;84;33290;-68
2022/11/17 12:06:39;;;;;;;6.83;5.05;;;;;;;4.30;79.04;99254.02;2104579;84;29435;-71
2022/11/17 12:10:04;;;;;;;6.05;4.60;;;;;;;4.28;79.51;99252.33;2092869;84;27715;-70
2022/11/17 12:13:10;;;;;;;7.12;4.83;;;;;;;4.29;79.07;99252.73;2102579;84;28829;-69
2022/11/17 12:16:31;;;;;;;16.07;8.90;;;;;;;4.31;79.31;99250.89;2102444;84;31398;-68
2022/11/17 12:19:53;;;;;;;22.73;15.55;;;;;;;4.35;79.60;99256.47;2083440;84;34372;-68
2022/11/17 12:23:18;;;;;;;5.83;4.42;;;;;;;4.32;79.18;99252.62;2104743;84;29009;-70
2022/11/17 12:26:23;;;;;;;;;;;;;;;4.31;78.58;99250.41;2092005;83;28321;-65
2022/11/17 12:29:30;;;;;;;5.17;4.37;;;;;;;4.32;78.52;99260.57;2104892;84;29043;-61
2022/11/17 12:32:49;;;;;;;6.40;4.15;;;;;;;4.29;77.50;99250.08;2105258;83;32107;-70
2022/11/17 12:36:05;;;;;;;6.10;4.20;;;;;;;4.27;78.20;99254.14;2105856;83;34072;-71
2022/11/17 12:39:12;;;;;;;8.05;5.08;;;;;;;4.23;76.87;99246.75;2098447;84;29370;-63
2022/11/17 12:42:13;;;;;;;6.87;5.40;;;;;;;4.20;77.70;99260.59;2099036;84;27708;-59
2022/11/17 12:45:15;;;;;;;5.45;4.87;;;;;;;4.18;77.96;99258.47;2074323;84;30134;-60
2022/11/17 12:48:20;;;;;;;9.05;5.78;;;;;;;4.14;77.63;99254.23;2068939;86;32262;-60
2022/11/17 12:51:43;;;;;;;10.23;8.18;;;;;;;4.13;78.38;99249.38;2068068;86;34249;-59
2022/11/17 12:54:59;;;;;;;12.75;9.15;;;;;;;4.14;78.62;99256.41;2093529;84;29466;-60
2022/11/17 12:58:25;;;;;;;12.05;8.70;;;;;;;4.14;78.63;99252.91;2105852;84;27657;-61
2022/11/17 13:01:36;;;;;;;12.68;8.68;;;;;;;4.12;78.69;99252.95;2105610;84;28971;-61
2022/11/17 13:04:44;;;;;;;11.45;6.92;;;;;;;4.14;79.16;99260.86;2083067;84;31416;-63
2022/11/17 13:07:46;;;;;;;8.50;6.90;;;;;;;4.09;78.15;99261.02;2069089;86;33836;-61
2022/11/17 13:10:49;;;;;;;10.30;6.72;;;;;;;4.00;78.51;99251.65;2068976;86;30336;-59
2022/11/17 13:14:14;;;;;;;8.80;6.17;;;;;;;3.98;78.68;99254.81;2082236;84;27813;-59
2022/11/17 13:17:16;;;;;;;12.28;8.23;;;;;;;3.92;77.47;99247.98;2106235;84;32854;-59
2022/11/17 13:20:27;;;;;;;8.85;6.83;;;;;;;3.87;78.07;99241.14;2106139;84;30463;-59
2022/11/17 13:23:32;;;;;;;9.38;6.08;;;;;;;3.81;76.69;99250.20;2098170;84;32987;-59
2022/11/17 13:26:37;;;;;;;8.40;5.25;;;;;;;3.74;77.71;99244.72;2069168;84;29860;-59
2022/11/17 13:29:39;;;;;;;8.15;5.90;;;;;;;3.69;77.36;99249.35;2069191;85;27727;-59
2022/11/17 13:32:49;;;;;;;7.15;5.37;;;;;;;3.68;78.26;99247.63;2069154;85;29526;-60
2022/11/17 13:36:19;;;;;;;7.65;6.25;;;;;;;3.66;77.61;99246.34;2047303;86;31034;-59
2022/11/17 13:39:40;;;;;;;10.87;6.80;;;;;;;3.61;77.59;99230.63;2041154;87;32963;-58
2022/11/17 13:42:42;;;;;;;9.45;6.00;;;;;;;3.59;77.78;99234.27;2131414;83;29054;-59
2022/11/17 13:45:46;;;;;;;8.05;5.20;;;;;;;3.54;77.61;99226.95;2131355;83;27774;-59
2022/11/17 13:48:49;;;;;;;10.18;5.70;;;;;;;3.50;77.61;99231.03;2130711;83;29983;-59
2022/11/17 13:51:51;;;;;;;6.55;5.35;;;;;;;3.48;77.62;99222.77;2070385;86;31041;-59
2022/11/17 13:54:53;;;;;;;8.55;6.58;;;;;;;3.46;77.28;99220.19;2070018;86;34191;-59
2022/11/17 13:58:05;;;;;;;7.60;5.62;;;;;;;3.45;77.96;99217.13;2035237;86;30351;-59
2022/11/17 14:01:12;;;;;;;8.55;6.55;;;;;;;3.45;77.77;99214.93;2033320;87;27875;-59
2022/11/17 14:04:22;;;;;;;7.67;6.35;;;;;;;3.44;77.77;99214.52;2035061;87;28671;-59
2022/11/17 14:07:33;;;;;;;8.35;6.62;;;;;;;3.42;77.92;99214.59;2070601;86;32232;-59
2022/11/17 14:10:37;;;;;;;8.78;6.62;;;;;;;3.41;78.07;99214.19;2070585;85;33004;-60
2022/11/17 14:13:50;;;;;;;8.33;7.22;;;;;;;3.40;77.81;99218.20;2070670;84;29035;-59
2022/11/17 14:16:52;;;;;;;12.45;8.70;;;;;;;3.37;78.01;99215.70;2115288;83;27699;-59
2022/11/17 14:19:54;;;;;;;13.48;9.45;;;;;;;3.34;78.31;99214.00;2106568;84;29423;-59
2022/11/17 14:23:14;;;;;;;17.30;11.48;;;;;;;3.32;78.02;99215.40;2117259;84;31447;-59
2022/11/17 14:26:23;;;;;;;17.67;12.53;;;;;;;3.31;78.41;99212.34;2070496;85;33144;-59
2022/11/17 14:29:26;;;;;;;12.20;9.55;;;;;;;3.29;78.20;99212.02;2085848;85;28375;-59
2022/11/17 14:32:28;;;;;;;12.15;9.00;;;;;;;3.26;78.45;99214.30;2085811;85;27710;-59
2022/11/17 14:35:30;;;;;;;14.63;10.95;;;;;;;3.25;78.49;99205.95;2114438;84;28765;-59
2022/11/17 14:38:32;;;;;;;16.23;10.40;;;;;;;3.24;78.57;99209.52;2121063;83;32220;-59
2022/11/17 14:41:34;;;;;;;16.35;10.35;;;;;;;3.22;78.83;99212.70;2139023;82;33625;-59
2022/11/17 14:44:36;;;;;;;13.05;9.88;;;;;;;3.21;78.62;99207.45;2153546;81;29573;-60
2022/11/17 14:47:37;;;;;;;19.23;11.93;;;;;;;3.16;78.68;99200.53;2153641;82;27740;-60
2022/11/17 14:50:39;;;;;;;18.77;12.43;;;;;;;3.13;78.79;99200.67;2153892;82;29190;-59
2022/11/17 14:53:43;;;;;;;16.75;11.83;;;;;;;3.12;78.89;99201.59;2153313;82;32269;-59
2022/11/17 14:56:45;;;;;;;17.65;13.08;;;;;;;3.09;78.77;99203.46;2153706;82;32894;-58
2022/11/17 14:59:47;;;;;;;21.87;16.12;;;;;;;3.07;79.06;99208.83;2153408;82;30184;-59
2022/11/17 15:02:49;;;;;;;19.15;11.78;;;;;;;3.06;79.06;99204.92;2153479;82;27749;-59
2022/11/17 15:05:52;;;;;;;15.15;10.10;;;;;;;3.03;79.02;99204.12;2153210;82;30072;-58
2022/11/17 15:08:58;;;;;;;22.05;13.15;;;;;;;3.02;79.05;99202.83;2153238;82;31901;-59